NCAR-RAP Real-Time Weather Data

Output produced by METARs form (17 December 2018  14:53 UTC)
found at http://weather.rap.ucar.edu/surface/
 
RJOC 171100Z 26010KT 9999 -SHRA FEW030 SCT045 BKN060 09/M01 Q1014
RJOC 171000Z 23011KT 9999 -SHRA FEW020 SCT040 BKN050 07/02 Q1014
RJOC 170900Z 28012KT 9999 -SHRA FEW020 SCT040 BKN050 08/02 Q1013
RJOC 170800Z 28014G25KT 9999 -SHRA FEW020 SCT035 BKN050 09/01 Q1013
RJOC 170700Z 26013KT 9999 VCSH FEW020 SCT035 BKN045 09/02 Q1012
RJOC 170600Z 27011KT 9999 -SHRA FEW020 SCT035 BKN045 08/03 Q1012
RJOC 170500Z 27013KT 9000 -SHRA FEW015 BKN030 BKN035 08/03 Q1012
RJOC 170400Z 27015KT 9999 VCSH FEW035 SCT040 BKN050 11/01 Q1011
RJOC 170300Z 26013KT 9999 FEW035 SCT040 BKN050 10/01 Q1012
RJOC 170200Z 27010KT 9999 FEW035 SCT040 BKN050 10/01 Q1013
RJOC 170100Z 26012KT 9999 FEW035 BKN040 10/03 Q1013
RJOC 170000Z 28014KT 9999 FEW035 SCT045 BKN050 10/03 Q1012
RJOC 162300Z 28008KT 9999 FEW035 BKN050 10/02 Q1012
RJOC 162200Z 29007KT 9999 FEW002 BKN050 10/03 Q1012
RJOC 162130Z 25003KT 210V300 9999 FEW002 SCT035 BKN050 08/05 Q1012
RJOC 162110Z 21004KT 9999 FEW002 SCT035 BKN050 07/06 Q1012 RMK 1ST002 3CU035 6SC050 A2988
RJOC 161100Z 18004KT 8000 -SHRA FEW010 SCT020 BKN030 09/07 Q1016
RJOC 161038Z 16005KT 6000 -SHRA BR FEW010 SCT025 BKN035 08/07 Q1016 RMK 1CU010 3CU025 5CU035 A3002
RJOC 161022Z 18004KT 4500 -SHRA BR FEW010 SCT015 BKN030 08/07 Q1016 RMK 1CU010 3CU015 6CU030 A3002
RJOC 161010Z 18004KT 3000 SHRA BR FEW010 SCT015 BKN020 08/07 Q1016 RMK 1CU010 3CU015 5CU020 A3003
RJOC 161000Z 18004KT 4000 -SHRA BR FEW010 SCT015 BKN025 08/07 Q1016
RJOC 160940Z VRB02KT 5000 -SHRA BR FEW010 SCT020 BKN025 08/07 Q1016 RMK 1CU010 3CU020 5CU025 A3003
RJOC 160916Z 20003KT 4500 -SHRA BR FEW015 SCT025 BKN030 08/07 Q1016 RMK 1CU015 3CU025 5CU030 A3003
RJOC 160900Z 29003KT 240V310 9999 -SHRA FEW015 SCT030 BKN040 08/07 Q1016
RJOC 160800Z 30004KT 210V350 9999 -RA FEW015 SCT045 BKN070 08/06 Q1016
RJOC 160700Z 25003KT 210V290 9999 -RA FEW010 SCT030 BKN045 09/06 Q1016
RJOC 160600Z 19012KT 9999 -RA FEW015 SCT030 BKN040 09/06 Q1017
RJOC 160500Z 19013KT 9999 -RA FEW020 SCT030 BKN040 10/06 Q1017
RJOC 160400Z 21011KT 9999 -RA FEW035 BKN050 BKN070 12/04 Q1018
RJOC 160300Z 20013KT 9999 FEW035 SCT060 BKN/// 12/03 Q1019
RJOC 160200Z 20012KT 9999 FEW035 SCT130 BKN/// 12/04 Q1020
RJOC 160100Z 16005KT 9999 FEW035 BKN140 09/02 Q1021
RJOC 160000Z 18008KT 9999 FEW035 BKN140 07/01 Q1022
RJOC 151100Z 17007KT 9999 FEW050 BKN/// 04/02 Q1028
RJOC 151000Z 16005KT 9999 FEW050 BKN/// 04/02 Q1028
RJOC 150900Z 17003KT 120V190 9999 FEW050 05/02 Q1028
RJOC 150800Z 10007KT 9999 FEW030 07/01 Q1028
RJOC 150700Z 07010KT 9999 FEW030 09/01 Q1028
RJOC 150600Z 06008KT 9999 FEW030 09/01 Q1028
RJOC 150500Z 07005KT 9999 FEW025 SCT050 09/02 Q1029
RJOC 150400Z VRB02KT 9999 FEW025 SCT050 09/02 Q1029
RJOC 150300Z 02005KT 9999 VCSH FEW005 SCT050 08/03 Q1030